Time;durP1;ratioP1;P1;durP2;ratioP2;P2;SDS_P1;SDS_P2;PMS_P1;PMS_P2;Temp;Humidity;BMP_temperature;BMP_pressure;BME280_temperature;BME280_humidity;BME280_pressure;Samples;Min_cycle;Max_cycle;Signal;HPM_P1;HPM_P2
2021/06/17 00:00:56;;;;;;;14.78;9.80;;;;;;;14.88;90.53;94860.23;1634867;83;21164;-56
2021/06/17 00:03:23;;;;;;;15.95;9.20;;;;;;;14.86;90.55;94855.78;1660101;84;21103;-57
2021/06/17 00:05:49;;;;;;;18.27;9.45;;;;;;;14.83;90.56;94853.94;1651777;83;21031;-57
2021/06/17 00:08:16;;;;;;;16.70;10.35;;;;;;;14.83;90.59;94853.19;1665818;85;21130;-56
2021/06/17 00:10:46;;;;;;;18.50;10.32;;;;;;;14.79;90.74;94851.22;1667949;85;21078;-57
2021/06/17 00:13:18;;;;;;;13.55;8.25;;;;;;;14.74;90.95;94850.45;1617415;84;21060;-58
2021/06/17 00:15:47;;;;;;;13.45;8.33;;;;;;;14.71;91.29;94848.03;1617179;86;21185;-58
2021/06/17 00:18:14;;;;;;;12.07;8.45;;;;;;;14.68;91.35;94843.44;1618089;86;21120;-58
2021/06/17 00:20:41;;;;;;;19.98;10.20;;;;;;;14.67;91.71;94839.11;1639143;86;21092;-57
2021/06/17 00:23:09;;;;;;;16.48;9.10;;;;;;;14.66;91.76;94843.11;1629366;86;21105;-58
2021/06/17 00:25:36;;;;;;;16.37;9.73;;;;;;;14.66;91.77;94852.06;1631941;85;21315;-57
2021/06/17 00:28:05;;;;;;;12.68;8.25;;;;;;;14.61;91.59;94843.77;1626863;85;21124;-57
2021/06/17 00:30:31;;;;;;;13.70;8.90;;;;;;;14.56;91.60;94843.64;1626124;86;21137;-57
2021/06/17 00:32:59;;;;;;;17.00;8.75;;;;;;;14.52;91.73;94832.77;1627362;86;21059;-57
2021/06/17 00:35:28;;;;;;;15.93;9.90;;;;;;;14.49;91.90;94837.08;1636005;86;21105;-57
2021/06/17 00:37:55;;;;;;;13.28;8.88;;;;;;;14.48;92.04;94832.78;1628999;85;21002;-57
2021/06/17 00:40:22;;;;;;;11.53;8.48;;;;;;;14.48;92.26;94832.14;1630090;85;21161;-58
2021/06/17 00:42:50;;;;;;;14.38;9.45;;;;;;;14.46;92.08;94838.77;1643061;84;21252;-58
2021/06/17 00:45:27;;;;;;;11.08;8.58;;;;;;;14.43;92.29;94828.64;1663180;85;21248;-57
2021/06/17 00:47:53;;;;;;;13.78;9.78;;;;;;;14.42;92.23;94836.66;1658580;84;21058;-58
2021/06/17 00:50:21;;;;;;;16.32;10.10;;;;;;;14.39;92.32;94830.67;1655718;85;21091;-58
2021/06/17 00:52:49;;;;;;;14.98;9.38;;;;;;;14.42;92.57;94833.28;1659898;85;21198;-58
2021/06/17 00:55:15;;;;;;;11.18;8.70;;;;;;;14.43;92.41;94831.27;1652501;84;21168;-58
2021/06/17 00:57:42;;;;;;;13.15;9.43;;;;;;;14.40;92.42;94828.06;1656802;84;21541;-57
2021/06/17 01:00:12;;;;;;;11.45;7.58;;;;;;;14.38;92.47;94826.37;1630455;86;21129;-57
2021/06/17 01:02:39;;;;;;;10.30;7.83;;;;;;;14.35;92.55;94823.92;1652775;84;22175;-57
2021/06/17 01:05:09;;;;;;;13.00;9.05;;;;;;;14.36;92.62;94826.09;1653763;84;21798;-57
2021/06/17 01:07:57;;;;;;;20.52;9.13;;;;;;;14.33;92.60;94831.17;1660093;84;21012;-58
2021/06/17 01:10:50;;;;;;;13.32;9.43;;;;;;;14.27;92.67;94826.89;1637532;84;21027;-57
2021/06/17 01:13:45;;;;;;;10.48;7.58;;;;;;;14.27;93.12;94824.13;1688671;83;21027;-58
2021/06/17 01:16:33;;;;;;;14.20;9.18;;;;;;;14.29;92.95;94818.11;1699777;83;21088;-58
2021/06/17 01:19:34;;;;;;;11.48;8.70;;;;;;;14.25;92.99;94810.60;1682383;83;21931;-58
2021/06/17 01:22:16;;;;;;;12.23;7.85;;;;;;;14.24;93.09;94814.60;1680608;83;21015;-58
2021/06/17 01:25:09;;;;;;;10.93;7.92;;;;;;;14.19;92.94;94809.08;1685368;83;21139;-57
2021/06/17 01:28:11;;;;;;;12.28;7.72;;;;;;;14.15;92.92;94821.55;1631290;86;21155;-56
2021/06/17 01:31:04;;;;;;;10.98;7.65;;;;;;;14.12;92.98;94820.47;1626017;86;21073;-58
2021/06/17 01:33:34;;;;;;;12.07;7.30;;;;;;;14.11;93.29;94825.08;1640178;86;21560;-58
2021/06/17 01:36:04;;;;;;;10.40;7.60;;;;;;;14.17;93.95;94829.54;1642849;86;21687;-58
2021/06/17 01:38:33;;;;;;;12.40;8.53;;;;;;;14.23;93.63;94831.84;1633739;85;21085;-57
2021/06/17 01:41:00;;;;;;;11.57;7.50;;;;;;;14.24;93.05;94829.22;1612508;86;21176;-57
2021/06/17 01:43:26;;;;;;;13.18;9.03;;;;;;;14.20;92.90;94825.83;1617474;86;20990;-58
2021/06/17 01:45:55;;;;;;;14.87;8.48;;;;;;;14.22;93.04;94823.99;1619619;86;21549;-58
2021/06/17 01:48:21;;;;;;;15.53;9.08;;;;;;;14.20;92.79;94829.23;1618919;86;21045;-57
2021/06/17 01:50:50;;;;;;;12.37;7.90;;;;;;;14.18;92.52;94829.69;1616757;86;21284;-56
2021/06/17 01:53:17;;;;;;;10.40;7.78;;;;;;;14.12;92.31;94829.38;1636207;86;21089;-58
2021/06/17 01:55:45;;;;;;;10.20;8.03;;;;;;;14.07;92.24;94829.41;1632019;85;21243;-62
2021/06/17 01:58:14;;;;;;;17.20;9.88;;;;;;;14.02;92.17;94823.74;1618031;87;21821;-57
2021/06/17 02:00:45;;;;;;;20.57;9.05;;;;;;;13.93;92.60;94829.30;1631640;84;21040;-57
2021/06/17 02:03:12;;;;;;;14.68;8.98;;;;;;;13.95;93.22;94833.74;1620253;86;21037;-58
2021/06/17 02:05:39;;;;;;;13.88;8.23;;;;;;;13.99;93.15;94833.73;1585815;89;21139;-58
2021/06/17 02:08:07;;;;;;;9.68;8.00;;;;;;;14.01;93.09;94836.05;1584318;87;21238;-58
2021/06/17 02:10:37;;;;;;;13.78;7.72;;;;;;;14.05;93.29;94836.64;1650187;84;21153;-56
2021/06/17 02:13:06;;;;;;;16.97;8.68;;;;;;;14.11;93.23;94829.23;1628574;85;20942;-57
2021/06/17 02:15:34;;;;;;;13.20;10.28;;;;;;;14.17;93.31;94835.07;1663898;84;21195;-57
2021/06/17 02:18:01;;;;;;;16.87;9.25;;;;;;;14.22;93.30;94837.83;1620744;85;21126;-56
2021/06/17 02:20:28;;;;;;;13.55;9.25;;;;;;;14.23;93.01;94837.98;1615928;85;21204;-57
2021/06/17 02:23:00;;;;;;;9.73;7.60;;;;;;;14.28;93.09;94835.95;1655214;85;21135;-58
2021/06/17 02:25:27;;;;;;;9.88;7.28;;;;;;;14.31;92.70;94837.77;1680539;85;21062;-57
2021/06/17 02:28:00;;;;;;;9.28;7.92;;;;;;;14.33;92.48;94840.87;1661105;83;21109;-57
2021/06/17 02:30:29;;;;;;;10.13;7.60;;;;;;;14.34;92.49;94842.40;1660585;85;21105;-57
2021/06/17 02:32:55;;;;;;;9.85;7.72;;;;;;;14.36;92.42;94839.92;1656853;84;21021;-57
2021/06/17 02:35:25;;;;;;;15.20;8.03;;;;;;;14.42;92.57;94839.42;1664314;84;21094;-57
2021/06/17 02:38:00;;;;;;;11.28;7.35;;;;;;;14.44;92.22;94842.63;1652179;85;21049;-57
2021/06/17 02:40:28;;;;;;;14.80;8.13;;;;;;;14.47;91.98;94836.78;1664921;84;21057;-56
2021/06/17 02:42:56;;;;;;;8.35;6.83;;;;;;;14.49;91.82;94836.44;1646170;86;20999;-57
2021/06/17 02:45:31;;;;;;;9.00;7.60;;;;;;;14.48;91.39;94843.22;1659998;84;21151;-58
2021/06/17 02:47:58;;;;;;;6.47;5.87;;;;;;;14.48;91.47;94843.22;1659773;84;21830;-58
2021/06/17 02:50:25;;;;;;;10.53;6.97;;;;;;;14.51;91.10;94839.53;1660567;84;21124;-58
2021/06/17 02:52:52;;;;;;;7.28;6.50;;;;;;;14.47;90.79;94847.22;1671605;85;21063;-58
2021/06/17 02:55:18;;;;;;;12.63;7.78;;;;;;;14.45;90.90;94840.02;1650324;84;21081;-58
2021/06/17 02:58:25;;;;;;;13.95;7.50;;;;;;;14.47;91.00;94845.84;1671034;85;21064;-58
2021/06/17 03:01:21;;;;;;;11.38;6.80;;;;;;;14.48;91.00;94841.08;1645011;86;21816;-56
2021/06/17 03:03:54;;;;;;;12.10;7.05;;;;;;;14.45;90.98;94839.26;1611517;87;21508;-57
2021/06/17 03:06:29;;;;;;;11.48;6.83;;;;;;;14.44;91.01;94852.32;1636933;86;21140;-58
2021/06/17 03:08:59;;;;;;;24.12;7.30;;;;;;;14.43;91.05;94846.63;1652689;84;21018;-57
2021/06/17 03:11:27;;;;;;;15.75;7.60;;;;;;;14.45;91.21;94852.47;1647450;85;21520;-58
2021/06/17 03:13:57;;;;;;;10.20;6.80;;;;;;;14.49;91.49;94862.75;1661228;83;21500;-59
2021/06/17 03:16:30;;;;;;;11.63;6.28;;;;;;;14.53;91.32;94860.59;1643984;85;21517;-58
2021/06/17 03:19:00;;;;;;;9.43;6.67;;;;;;;14.58;91.14;94869.63;1656152;85;21162;-57
2021/06/17 03:21:28;;;;;;;6.45;5.72;;;;;;;14.63;90.93;94882.83;1642187;86;21453;-57
2021/06/17 03:23:56;;;;;;;11.70;5.92;;;;;;;14.66;90.60;94880.50;1646979;83;21504;-57
2021/06/17 03:26:24;;;;;;;7.03;5.92;;;;;;;14.64;90.38;94887.13;1653587;85;21146;-58
2021/06/17 03:28:51;;;;;;;11.88;6.40;;;;;;;14.61;90.52;94888.07;1650922;84;21108;-58
2021/06/17 03:31:18;;;;;;;9.43;6.35;;;;;;;14.63;90.62;94892.52;1662653;84;21160;-58
2021/06/17 03:33:45;;;;;;;15.65;5.50;;;;;;;14.66;90.40;94883.27;1640471;85;22128;-57
2021/06/17 03:36:13;;;;;;;15.18;6.72;;;;;;;14.65;90.29;94896.22;1638138;85;21078;-57
2021/06/17 03:38:40;;;;;;;7.97;6.60;;;;;;;14.62;90.18;94897.16;1660538;82;21213;-57
2021/06/17 03:41:12;;;;;;;10.18;5.97;;;;;;;14.59;90.69;94902.25;1662308;84;21062;-58
2021/06/17 03:43:40;;;;;;;10.43;5.92;;;;;;;14.62;90.73;94903.45;1647925;84;21059;-56
2021/06/17 03:46:11;;;;;;;8.30;5.50;;;;;;;14.69;90.58;94910.05;1660222;83;21153;-57
2021/06/17 03:48:43;;;;;;;18.20;6.37;;;;;;;14.74;90.44;94909.40;1672677;84;21539;-57
2021/06/17 03:51:12;;;;;;;7.65;6.25;;;;;;;14.82;90.40;94922.29;1654166;84;21890;-57
2021/06/17 03:53:39;;;;;;;11.33;6.67;;;;;;;14.86;89.97;94914.56;1658360;83;21092;-57
2021/06/17 03:56:06;;;;;;;14.13;6.28;;;;;;;14.88;89.79;94925.94;1673019;83;21192;-57
2021/06/17 03:58:33;;;;;;;14.55;6.50;;;;;;;14.91;89.76;94931.31;1645094;84;21176;-57
2021/06/17 04:01:00;;;;;;;13.83;7.33;;;;;;;14.98;89.71;94932.97;1667872;84;20992;-58
2021/06/17 04:03:28;;;;;;;10.80;6.92;;;;;;;15.06;89.85;94942.45;1658135;83;21132;-58
2021/06/17 04:05:56;;;;;;;9.33;6.35;;;;;;;15.17;89.90;94943.46;1674468;84;21031;-58
2021/06/17 04:08:30;;;;;;;11.53;6.15;;;;;;;15.27;89.76;94933.86;1670386;84;21037;-59
2021/06/17 04:10:59;;;;;;;;;;;;;;;15.35;89.44;94931.53;1649397;84;21063;-57
2021/06/17 04:13:28;;;;;;;24.70;7.40;;;;;;;15.45;88.97;94930.98;1691865;83;20161;-57
2021/06/17 04:15:56;;;;;;;19.98;7.58;;;;;;;15.48;88.59;94933.41;1689396;83;21138;-57
2021/06/17 04:18:25;;;;;;;12.40;7.22;;;;;;;15.52;88.38;94936.80;1668684;83;21014;-56
2021/06/17 04:20:55;;;;;;;12.95;7.12;;;;;;;15.51;88.02;94929.08;1660107;84;21071;-56
2021/06/17 04:23:23;;;;;;;9.53;6.85;;;;;;;15.52;88.01;94937.55;1674132;84;21049;-56
2021/06/17 04:25:50;;;;;;;9.75;5.92;;;;;;;15.54;87.87;94939.22;1659479;83;21280;-57
2021/06/17 04:28:17;;;;;;;11.08;7.05;;;;;;;15.57;87.58;94941.04;1658021;83;21150;-57
2021/06/17 04:30:44;;;;;;;12.13;6.97;;;;;;;15.61;87.41;94933.33;1662983;85;21593;-58
2021/06/17 04:33:14;;;;;;;12.25;6.87;;;;;;;15.67;87.44;94931.42;1656870;83;21183;-58
2021/06/17 04:35:43;;;;;;;12.93;6.15;;;;;;;15.70;87.15;94929.72;1656471;83;21081;-58
2021/06/17 04:38:13;;;;;;;9.90;6.28;;;;;;;15.70;87.10;94927.69;1652236;84;22573;-58
2021/06/17 04:40:40;;;;;;;10.68;6.62;;;;;;;15.71;86.98;94925.70;1618801;86;21182;-58
2021/06/17 04:43:08;;;;;;;7.87;6.22;;;;;;;15.73;86.95;94924.59;1671913;85;21125;-58
2021/06/17 04:45:35;;;;;;;12.68;8.00;;;;;;;15.73;86.95;94918.41;1660086;83;20974;-58
2021/06/17 04:48:08;;;;;;;7.62;6.12;;;;;;;15.75;86.76;94927.66;1668291;85;21051;-57
2021/06/17 04:50:33;;;;;;;11.43;6.58;;;;;;;15.75;86.62;94928.41;1615389;87;21593;-58
2021/06/17 04:53:13;;;;;;;10.13;6.78;;;;;;;15.81;86.60;94916.81;1646515;85;21145;-57
2021/06/17 04:55:53;;;;;;;10.58;8.15;;;;;;;15.90;86.26;94915.33;1641969;86;20952;-58
2021/06/17 04:58:22;;;;;;;11.03;6.65;;;;;;;15.97;86.22;94915.58;1599258;87;21035;-57
2021/06/17 05:00:49;;;;;;;9.43;6.95;;;;;;;16.00;86.00;94909.06;1607746;88;21587;-57
2021/06/17 05:03:16;;;;;;;10.70;6.60;;;;;;;16.01;86.18;94903.66;1619327;87;21050;-58
2021/06/17 05:05:42;;;;;;;17.60;7.80;;;;;;;16.05;86.04;94907.78;1608829;86;21242;-59
2021/06/17 05:10:55;;;;;;;13.45;7.00;;;;;;;16.15;85.94;94890.41;1602176;86;21047;-57
2021/06/17 05:13:28;;;;;;;9.88;7.42;;;;;;;16.22;85.98;94900.51;1600982;86;21095;-60
2021/06/17 05:15:59;;;;;;;13.72;7.50;;;;;;;16.25;85.90;94906.48;1666368;83;21133;-58
2021/06/17 05:18:28;;;;;;;10.28;7.80;;;;;;;16.29;86.03;94904.27;1656147;83;21141;-57
2021/06/17 05:20:55;;;;;;;11.60;8.13;;;;;;;16.38;85.93;94913.94;1667160;84;21046;-58
2021/06/17 05:23:22;;;;;;;19.98;10.70;;;;;;;16.47;85.60;94912.42;1652686;85;21052;-59
2021/06/17 05:25:55;;;;;;;13.28;9.30;;;;;;;16.55;85.26;94908.03;1662538;84;21542;-58
2021/06/17 05:28:24;;;;;;;25.55;17.90;;;;;;;16.62;84.97;94905.62;1616791;85;21654;-58
2021/06/17 05:30:53;;;;;;;17.27;10.35;;;;;;;16.69;84.84;94910.02;1627919;84;21154;-59
2021/06/17 05:33:20;;;;;;;17.57;9.48;;;;;;;16.75;84.63;94913.64;1631916;85;20964;-59
2021/06/17 05:35:47;;;;;;;14.25;8.75;;;;;;;16.82;84.52;94922.95;1654691;83;21100;-57
2021/06/17 05:38:18;;;;;;;12.88;8.53;;;;;;;16.85;84.57;94919.98;1652638;83;21017;-61
2021/06/17 05:40:45;;;;;;;15.08;7.85;;;;;;;16.85;84.86;94924.76;1650884;84;21081;-62
2021/06/17 05:43:12;;;;;;;12.40;7.97;;;;;;;16.84;84.84;94924.02;1660984;83;21352;-59
2021/06/17 05:45:39;;;;;;;10.63;8.23;;;;;;;16.85;84.87;94921.98;1642944;83;21092;-62
2021/06/17 05:48:08;;;;;;;8.93;7.78;;;;;;;16.87;84.92;94919.52;1648836;85;21128;-73
2021/06/17 05:50:35;;;;;;;10.28;8.83;;;;;;;16.87;84.97;94927.20;1663910;83;21129;-63
2021/06/17 05:53:02;;;;;;;15.08;9.98;;;;;;;16.87;85.15;94929.23;1665866;83;21549;-58
2021/06/17 05:55:29;;;;;;;14.03;8.78;;;;;;;16.93;85.41;94935.63;1660284;83;21783;-64
2021/06/17 05:57:56;;;;;;;16.73;9.50;;;;;;;17.04;85.50;94935.77;1636854;83;21075;-64
2021/06/17 06:00:23;;;;;;;14.40;10.75;;;;;;;17.17;85.56;94945.95;1621361;83;21051;-59
2021/06/17 06:02:50;;;;;;;18.95;10.72;;;;;;;17.26;85.46;94943.06;1645550;85;21449;-59
2021/06/17 06:05:17;;;;;;;21.90;11.20;;;;;;;17.36;85.52;94938.91;1656256;83;21452;-59
2021/06/17 06:07:44;;;;;;;17.67;10.45;;;;;;;17.49;85.28;94943.52;1659829;84;21101;-54
2021/06/17 06:10:14;;;;;;;23.80;12.90;;;;;;;17.64;85.03;94944.95;1656932;83;21284;-57
2021/06/17 06:12:40;;;;;;;15.48;9.58;;;;;;;17.80;84.51;94947.18;1663648;83;21191;-57
2021/06/17 06:15:09;;;;;;;13.22;9.25;;;;;;;17.96;83.68;94953.56;1663235;83;21496;-59
2021/06/17 06:17:37;;;;;;;16.65;10.48;;;;;;;18.11;83.17;94954.23;1656193;83;20974;-58
2021/06/17 06:20:06;;;;;;;14.93;8.80;;;;;;;18.25;82.29;94958.30;1646514;85;22335;-59
2021/06/17 06:22:33;;;;;;;18.20;8.60;;;;;;;18.40;81.67;94953.42;1650080;84;20941;-61
2021/06/17 06:25:00;;;;;;;8.90;8.00;;;;;;;18.54;80.93;94951.16;1666679;83;21064;-59
2021/06/17 06:27:28;;;;;;;16.93;8.40;;;;;;;18.66;80.45;94955.55;1652246;85;46084;-56
2021/06/17 06:29:56;;;;;;;14.85;9.05;;;;;;;18.79;79.29;94950.98;1657350;83;21041;-63
2021/06/17 06:32:22;;;;;;;14.33;8.45;;;;;;;18.90;78.47;94956.01;1651765;83;21136;-62
2021/06/17 06:34:50;;;;;;;16.82;8.58;;;;;;;19.00;77.68;94952.41;1662118;83;20894;-57
2021/06/17 06:37:16;;;;;;;15.38;8.65;;;;;;;19.01;77.32;94956.07;1664958;83;21005;-56
2021/06/17 06:39:43;;;;;;;18.20;9.48;;;;;;;19.05;76.96;94954.45;1667689;84;21525;-56
2021/06/17 06:42:10;;;;;;;15.03;10.38;;;;;;;19.08;76.71;94957.02;1661701;84;21025;-63
2021/06/17 06:44:37;;;;;;;16.85;10.50;;;;;;;19.11;76.43;94957.42;1666437;83;22150;-58
2021/06/17 06:47:05;;;;;;;11.85;10.00;;;;;;;19.15;76.14;94956.55;1655877;84;21084;-60
2021/06/17 06:49:31;;;;;;;17.42;11.43;;;;;;;19.21;76.08;94957.38;1651722;85;21013;-59
2021/06/17 06:51:58;;;;;;;12.10;10.43;;;;;;;19.36;76.04;94963.56;1657113;84;21148;-57
2021/06/17 06:54:25;;;;;;;41.98;14.87;;;;;;;19.55;75.54;94965.33;1670804;83;21322;-58
2021/06/17 06:56:52;;;;;;;16.55;10.98;;;;;;;19.77;74.76;94961.98;1650380;83;21530;-58
2021/06/17 06:59:19;;;;;;;19.90;11.95;;;;;;;19.97;74.04;94960.44;1625002;84;21061;-56
2021/06/17 07:01:46;;;;;;;15.75;10.13;;;;;;;20.16;73.44;94953.91;1606501;87;21006;-57
2021/06/17 07:04:13;;;;;;;14.10;8.80;;;;;;;20.34;72.57;94956.89;1626127;85;21066;-58
2021/06/17 07:06:41;;;;;;;14.75;8.55;;;;;;;20.46;71.24;94961.98;1625055;85;20983;-61
2021/06/17 07:09:08;;;;;;;9.88;7.40;;;;;;;20.57;70.25;94960.59;1590401;86;21163;-56
2021/06/17 07:11:36;;;;;;;14.70;9.60;;;;;;;20.66;69.50;94959.58;1614488;86;21034;-57
2021/06/17 07:14:06;;;;;;;12.23;7.37;;;;;;;20.75;68.80;94954.50;1644050;85;21002;-60
2021/06/17 07:16:34;;;;;;;12.53;6.95;;;;;;;20.81;65.92;94952.49;1669057;83;21041;-59
2021/06/17 07:19:02;;;;;;;8.65;5.20;;;;;;;20.91;65.36;94954.43;1647425;85;21009;-59
2021/06/17 07:21:29;;;;;;;10.40;5.90;;;;;;;21.03;63.77;94951.11;1670919;84;21154;-56
2021/06/17 07:23:56;;;;;;;8.85;5.45;;;;;;;21.14;63.06;94948.94;1644869;84;21157;-57
2021/06/17 07:26:27;;;;;;;10.35;5.17;;;;;;;21.21;60.39;94949.80;1657245;83;21097;-56
2021/06/17 07:28:52;;;;;;;9.00;4.50;;;;;;;21.32;59.50;94948.41;1659534;83;21133;-58
2021/06/17 07:31:19;;;;;;;5.53;3.25;;;;;;;21.49;59.59;94947.73;1628298;85;20970;-57
2021/06/17 07:33:46;;;;;;;6.45;3.50;;;;;;;21.66;55.40;94954.83;1648462;84;21135;-57
2021/06/17 07:36:13;;;;;;;7.58;3.10;;;;;;;21.78;54.16;94952.74;1662941;83;20970;-62
2021/06/17 07:38:41;;;;;;;4.67;3.10;;;;;;;21.93;52.59;94958.19;1652413;84;21180;-59
2021/06/17 07:41:08;;;;;;;7.50;4.20;;;;;;;22.12;51.99;94961.91;1647113;85;22575;-58
2021/06/17 07:43:35;;;;;;;6.85;3.33;;;;;;;22.34;50.82;94963.98;1645536;85;21045;-58
2021/06/17 07:46:04;;;;;;;6.00;3.40;;;;;;;22.53;51.55;94959.30;1666202;83;21852;-59
2021/06/17 07:48:32;;;;;;;4.97;2.83;;;;;;;22.67;49.11;94960.97;1644177;85;21568;-59
2021/06/17 07:50:59;;;;;;;4.85;2.72;;;;;;;22.79;48.01;94960.25;1644878;85;22164;-54
2021/06/17 07:53:26;;;;;;;5.42;2.80;;;;;;;22.86;45.98;94963.91;1662810;83;21005;-57
2021/06/17 07:55:53;;;;;;;12.75;8.60;;;;;;;22.85;45.47;94960.33;1654336;84;21543;-58
2021/06/17 07:58:20;;;;;;;9.33;4.50;;;;;;;22.83;45.49;94950.93;1677570;83;21114;-57
2021/06/17 08:00:47;;;;;;;4.50;3.10;;;;;;;22.86;46.02;94953.44;1656596;84;20876;-57
2021/06/17 08:03:13;;;;;;;3.52;2.83;;;;;;;22.89;45.59;94963.64;1634955;85;21545;-57
2021/06/17 08:05:40;;;;;;;3.83;2.83;;;;;;;22.88;45.44;94957.88;1661819;84;21202;-57
2021/06/17 08:08:07;;;;;;;5.05;2.92;;;;;;;22.88;47.12;94951.52;1648723;84;21215;-59
2021/06/17 08:10:36;;;;;;;5.30;3.10;;;;;;;22.92;47.20;94958.38;1657843;83;21467;-58
2021/06/17 08:13:03;;;;;;;6.00;3.50;;;;;;;22.93;45.96;94957.09;1665125;83;21880;-57
2021/06/17 08:15:30;;;;;;;10.30;4.05;;;;;;;22.91;47.36;94958.27;1646874;84;20995;-58
2021/06/17 08:17:59;;;;;;;4.92;3.00;;;;;;;22.97;47.52;94956.16;1654742;84;21183;-57
2021/06/17 08:20:27;;;;;;;4.10;3.10;;;;;;;23.02;45.71;94960.96;1653613;83;21112;-57
2021/06/17 08:22:54;;;;;;;5.28;3.40;;;;;;;23.02;44.58;94952.54;1651334;84;21171;-57
2021/06/17 08:25:21;;;;;;;4.08;3.20;;;;;;;22.94;45.12;94955.81;1646575;85;21600;-57
2021/06/17 08:27:48;;;;;;;4.75;3.30;;;;;;;22.88;46.05;94959.94;1647784;85;21117;-57
2021/06/17 08:30:18;;;;;;;3.87;3.27;;;;;;;22.85;46.10;94958.92;1664337;84;21186;-57
2021/06/17 08:32:48;;;;;;;5.00;3.27;;;;;;;22.90;46.35;94958.14;1661775;83;21024;-58
2021/06/17 08:35:17;;;;;;;6.72;3.60;;;;;;;22.91;46.55;94962.47;1669239;83;21049;-60
2021/06/17 08:37:46;;;;;;;6.83;3.52;;;;;;;22.79;46.37;94966.63;1671892;84;21061;-57
2021/06/17 08:40:14;;;;;;;7.58;3.70;;;;;;;22.64;47.48;94969.03;1672978;84;21029;-58
2021/06/17 08:42:42;;;;;;;9.13;4.25;;;;;;;22.60;47.40;94965.75;1652231;84;21177;-59
2021/06/17 08:45:15;;;;;;;6.47;3.50;;;;;;;22.64;48.46;94963.41;1637940;85;21007;-58
2021/06/17 08:47:45;;;;;;;8.08;4.30;;;;;;;22.72;47.44;94964.40;1603710;87;23968;-58
2021/06/17 08:50:13;;;;;;;4.75;4.12;;;;;;;22.78;47.65;94965.11;1623111;85;21691;-59
2021/06/17 08:52:41;;;;;;;6.40;4.50;;;;;;;22.80;48.13;94962.54;1618717;87;21716;-57
2021/06/17 08:55:19;;;;;;;5.08;4.08;;;;;;;22.81;48.71;94963.31;1656579;85;21029;-55
2021/06/17 08:57:52;;;;;;;9.25;5.78;;;;;;;22.79;49.66;94965.23;1614300;88;21132;-58
2021/06/17 09:00:30;;;;;;;7.10;4.58;;;;;;;22.73;47.72;94967.95;1586912;87;21144;-57
2021/06/17 09:03:02;;;;;;;9.90;5.33;;;;;;;22.59;49.26;94975.44;1608351;87;21094;-58
2021/06/17 09:05:30;;;;;;;5.83;4.90;;;;;;;22.51;50.06;94982.87;1601372;87;21163;-58
2021/06/17 09:07:58;;;;;;;7.92;4.70;;;;;;;22.42;49.63;94981.79;1637337;85;21241;-57
2021/06/17 09:10:29;;;;;;;10.65;7.45;;;;;;;22.32;50.28;94985.39;1659162;83;21109;-58
2021/06/17 09:13:00;;;;;;;9.40;5.62;;;;;;;22.18;50.50;94988.64;1665393;84;21119;-58
2021/06/17 09:15:46;;;;;;;7.53;5.62;;;;;;;22.03;50.93;94989.48;1648287;84;21059;-58
2021/06/17 09:18:37;;;;;;;4.87;4.37;;;;;;;21.88;51.87;95010.03;1667392;85;21009;-60
2021/06/17 09:21:08;;;;;;;7.87;5.05;;;;;;;21.74;55.23;95030.69;1648762;84;21044;-58
2021/06/17 09:23:42;;;;;;;7.03;4.87;;;;;;;21.38;56.76;95027.53;1665911;84;21110;-57
2021/06/17 09:26:20;;;;;;;5.67;4.62;;;;;;;21.06;57.84;95034.02;1670367;84;21204;-58
2021/06/17 09:31:32;;;;;;;6.42;4.60;;;;;;;20.83;61.21;95028.30;1648390;84;20996;-57
2021/06/17 09:34:02;;;;;;;7.12;5.75;;;;;;;20.84;62.38;95036.81;1643070;85;21070;-57
2021/06/17 09:36:34;;;;;;;8.28;5.83;;;;;;;20.98;64.01;95035.04;1634797;85;21038;-59
2021/06/17 09:39:14;;;;;;;5.80;5.22;;;;;;;21.15;64.66;95033.02;1619572;85;21382;-58
2021/06/17 09:41:44;;;;;;;6.87;6.08;;;;;;;21.33;65.52;95031.10;1605406;86;21571;-58
2021/06/17 09:44:31;;;;;;;6.92;5.72;;;;;;;21.47;65.07;95037.08;1604710;87;21113;-58
2021/06/17 09:47:18;;;;;;;10.63;8.75;;;;;;;21.61;63.98;95036.02;1657636;84;21227;-61
2021/06/17 09:49:45;;;;;;;7.17;5.85;;;;;;;21.66;63.66;95039.50;1669440;84;21014;-58
2021/06/17 09:52:13;;;;;;;13.13;5.40;;;;;;;21.69;62.91;95034.27;1660167;84;21113;-61
2021/06/17 09:54:42;;;;;;;6.20;5.60;;;;;;;21.73;61.68;95041.77;1657073;83;21327;-60
2021/06/17 09:57:20;;;;;;;6.22;5.30;;;;;;;21.76;61.86;95037.31;1642644;85;21001;-60
2021/06/17 09:59:50;;;;;;;6.95;5.30;;;;;;;21.77;61.90;95038.06;1642084;85;21151;-57
2021/06/17 10:02:28;;;;;;;8.48;6.22;;;;;;;21.77;61.59;95037.44;1584124;86;21093;-59
2021/06/17 10:05:14;;;;;;;8.70;5.70;;;;;;;21.80;62.00;95035.00;1600861;86;21184;-60
2021/06/17 10:07:43;;;;;;;12.68;6.25;;;;;;;21.87;61.50;95026.72;1613773;86;21355;-58
2021/06/17 10:10:14;;;;;;;7.10;6.08;;;;;;;22.02;59.82;95032.79;1617693;86;21120;-59
2021/06/17 10:12:42;;;;;;;22.58;6.42;;;;;;;22.23;58.66;95036.12;1607084;87;21169;-59
2021/06/17 10:15:09;;;;;;;6.08;5.28;;;;;;;22.44;57.53;95032.50;1588446;87;21088;-58
2021/06/17 10:17:36;;;;;;;8.20;5.22;;;;;;;22.61;56.33;95024.77;1615472;86;21689;-58
2021/06/17 10:20:07;;;;;;;8.35;5.80;;;;;;;22.70;56.17;95032.86;1616021;86;21174;-57
2021/06/17 10:22:37;;;;;;;10.00;5.58;;;;;;;22.77;55.89;95026.72;1651298;85;21062;-58
2021/06/17 10:25:09;;;;;;;7.42;5.15;;;;;;;22.83;55.19;95030.23;1651509;85;21159;-57
2021/06/17 10:27:42;;;;;;;8.40;6.00;;;;;;;22.91;54.89;95022.80;1627391;85;21117;-58
2021/06/17 10:30:11;;;;;;;7.42;6.03;;;;;;;23.14;54.62;95029.03;1605884;86;21863;-58
2021/06/17 10:32:45;;;;;;;13.30;5.78;;;;;;;23.50;54.42;95017.25;1647956;85;20915;-59
2021/06/17 10:35:27;;;;;;;25.88;11.65;;;;;;;23.92;53.54;95014.44;1625961;86;21621;-58
2021/06/17 10:38:01;;;;;;;10.90;5.95;;;;;;;24.28;56.81;95015.16;1640892;85;21245;-58
2021/06/17 10:40:29;;;;;;;15.90;6.62;;;;;;;24.63;54.61;95013.58;1618462;85;21564;-60
2021/06/17 10:42:57;;;;;;;10.88;7.40;;;;;;;24.80;51.99;95014.88;1631254;85;21180;-60
2021/06/17 10:45:45;;;;;;;8.75;6.00;;;;;;;24.81;51.79;95011.41;1638471;85;21052;-57
2021/06/17 10:48:13;;;;;;;10.72;5.42;;;;;;;24.80;51.49;95009.89;1625355;86;21041;-60
2021/06/17 10:50:52;;;;;;;9.98;5.25;;;;;;;24.77;51.15;95010.95;1629593;85;21183;-64
2021/06/17 10:53:33;;;;;;;13.18;5.58;;;;;;;24.77;51.05;95003.92;1622176;85;21132;-58
2021/06/17 10:56:15;;;;;;;23.10;6.40;;;;;;;24.59;51.31;95001.87;1630996;85;21183;-62
2021/06/17 10:58:51;;;;;;;9.40;4.90;;;;;;;24.41;50.62;94996.97;1635213;86;21034;-65
2021/06/17 11:01:42;;;;;;;10.95;5.00;;;;;;;24.26;51.14;94995.23;1618804;84;21131;-59
2021/06/17 11:04:19;;;;;;;21.80;13.30;;;;;;;24.21;51.20;95004.51;1630887;86;21056;-58
2021/06/17 11:07:09;;;;;;;8.55;5.85;;;;;;;24.25;51.15;95000.75;1665805;85;21127;-57
2021/06/17 11:09:46;;;;;;;7.92;4.78;;;;;;;24.50;50.28;94997.35;1624927;85;21140;-58
2021/06/17 11:12:23;;;;;;;8.70;4.85;;;;;;;24.45;50.06;94991.80;1638033;85;21022;-58
2021/06/17 11:14:56;;;;;;;18.80;5.95;;;;;;;24.43;50.13;94994.38;1620959;85;21972;-59
2021/06/17 11:17:33;;;;;;;7.22;4.90;;;;;;;24.46;50.17;94984.88;1611274;86;21074;-58
2021/06/17 11:20:08;;;;;;;19.07;5.92;;;;;;;24.51;50.50;94982.02;1638508;85;21021;-58
2021/06/17 11:22:37;;;;;;;14.00;4.67;;;;;;;24.59;50.69;94977.95;1636286;85;21799;-62
2021/06/17 11:25:19;;;;;;;7.92;4.70;;;;;;;24.62;50.12;94972.66;1641339;85;21075;-64
2021/06/17 11:27:59;;;;;;;11.93;5.45;;;;;;;24.54;50.12;94968.95;1632431;85;21075;-58
2021/06/17 11:30:49;;;;;;;20.65;6.22;;;;;;;24.57;50.38;94972.10;1624442;85;21211;-57
2021/06/17 11:33:24;;;;;;;11.75;5.65;;;;;;;24.66;50.26;94962.63;1628151;86;21056;-57
2021/06/17 11:36:02;;;;;;;7.70;4.15;;;;;;;24.81;50.82;94957.92;1631445;85;21276;-55
2021/06/17 11:38:30;;;;;;;14.10;5.30;;;;;;;25.21;49.18;94960.38;1625350;85;21488;-57
2021/06/17 11:40:59;;;;;;;8.23;5.10;;;;;;;25.74;48.16;94954.18;1645166;84;22034;-54
2021/06/17 11:43:31;;;;;;;15.48;5.53;;;;;;;26.16;47.92;94954.63;1617115;86;21024;-55
2021/06/17 11:45:57;;;;;;;6.92;4.72;;;;;;;26.75;46.94;94957.37;1617510;85;21080;-59
2021/06/17 11:48:25;;;;;;;6.15;4.47;;;;;;;27.40;45.88;94955.04;1632116;84;21247;-57